Time;durP1;ratioP1;P1;durP2;ratioP2;P2;SDS_P1;SDS_P2;PMS_P1;PMS_P2;Temp;Humidity;BMP_temperature;BMP_pressure;BME280_temperature;BME280_humidity;BME280_pressure;Samples;Min_cycle;Max_cycle;Signal;HPM_P1;HPM_P2
2022/12/22 03:26:54;;;;;;;18.98;9.02;;;27.20;89.80;;;;;;5103799;28;20224;-53
2022/12/22 03:29:20;;;;;;;21.25;8.88;;;27.20;90.00;;;;;;5109587;28;20066;-52
2022/12/22 03:31:47;;;;;;;22.75;9.20;;;27.20;90.00;;;;;;5127666;28;20027;-51
2022/12/22 03:34:13;;;;;;;25.25;9.40;;;27.30;89.90;;;;;;5108516;28;20047;-52
2022/12/22 03:36:40;;;;;;;29.35;9.02;;;27.30;89.80;;;;;;5092587;28;20020;-53
2022/12/22 03:39:06;;;;;;;29.23;9.02;;;27.30;89.70;;;;;;5086663;28;20260;-52
2022/12/22 03:47:02;;;;;;;15.27;7.68;;;27.30;89.60;;;;;;5127820;28;20039;-53
2022/12/22 03:49:29;;;;;;;17.70;7.95;;;27.30;89.70;;;;;;5127178;28;20051;-56
2022/12/22 03:51:55;;;;;;;21.08;7.25;;;27.30;89.70;;;;;;5112592;28;20039;-52
2022/12/22 03:54:24;;;;;;;18.25;7.50;;;27.30;89.70;;;;;;5106764;28;20023;-53
2022/12/22 03:56:51;;;;;;;11.13;6.85;;;27.30;89.70;;;;;;5106962;28;20027;-53
2022/12/22 03:59:18;;;;;;;10.50;6.60;;;27.30;89.60;;;;;;5106451;28;20012;-50
2022/12/22 04:01:51;;;;;;;10.15;6.32;;;27.20;89.40;;;;;;5109096;28;20056;-53
2022/12/22 04:04:19;;;;;;;11.35;6.45;;;27.20;89.40;;;;;;5105585;28;20032;-54
2022/12/22 04:06:47;;;;;;;11.80;6.50;;;27.20;89.40;;;;;;5106255;28;20024;-53
2022/12/22 04:09:13;;;;;;;15.63;6.00;;;27.30;89.30;;;;;;5106476;28;20039;-52
2022/12/22 04:14:25;;;;;;;13.52;5.47;;;27.30;89.10;;;;;;5106434;28;20050;-54
2022/12/22 04:16:52;;;;;;;12.25;5.57;;;27.30;88.90;;;;;;5127044;28;20094;-53
2022/12/22 04:19:18;;;;;;;12.00;5.95;;;27.30;89.00;;;;;;5126763;28;20008;-54
2022/12/22 04:21:45;;;;;;;9.02;5.85;;;27.30;89.00;;;;;;5126903;28;20047;-54
2022/12/22 04:24:12;;;;;;;11.32;5.85;;;27.20;89.10;;;;;;5126686;28;20020;-53
2022/12/22 04:26:39;;;;;;;12.60;5.78;;;27.20;89.30;;;;;;5114377;28;20095;-53
2022/12/22 04:29:05;;;;;;;17.13;6.43;;;27.20;89.40;;;;;;5106148;28;20028;-53
2022/12/22 04:31:32;;;;;;;8.68;5.30;;;27.20;89.40;;;;;;5106306;28;20035;-53
2022/12/22 04:33:59;;;;;;;9.68;5.70;;;27.20;89.30;;;;;;5105377;28;20267;-52
2022/12/22 04:36:25;;;;;;;8.13;5.40;;;27.20;89.30;;;;;;5105639;28;20050;-54
2022/12/22 04:38:52;;;;;;;8.07;5.13;;;27.20;89.20;;;;;;5105543;28;20043;-53
2022/12/22 04:41:18;;;;;;;8.32;4.88;;;27.20;89.10;;;;;;5085621;28;20047;-54
2022/12/22 04:43:45;;;;;;;10.45;5.30;;;27.20;89.30;;;;;;5098533;28;20015;-53
2022/12/22 04:46:11;;;;;;;14.90;5.95;;;27.20;89.40;;;;;;5105412;28;20201;-54
2022/12/22 04:48:38;;;;;;;11.90;6.07;;;27.20;89.40;;;;;;5105461;28;20059;-54
2022/12/22 04:51:05;;;;;;;13.60;5.88;;;27.20;89.40;;;;;;5104961;28;20042;-53
2022/12/22 04:53:32;;;;;;;11.10;5.63;;;27.20;89.30;;;;;;5104650;28;20043;-54
2022/12/22 04:56:01;;;;;;;10.95;5.80;;;27.20;89.30;;;;;;5105489;28;20024;-54
2022/12/22 04:58:28;;;;;;;12.45;6.53;;;27.20;89.20;;;;;;5104289;28;20035;-53
2022/12/22 05:00:55;;;;;;;10.50;5.75;;;27.20;89.30;;;;;;5105499;28;20340;-54
2022/12/22 05:03:23;;;;;;;14.02;6.15;;;27.20;89.40;;;;;;5105440;28;20035;-52
2022/12/22 05:05:49;;;;;;;12.77;5.88;;;27.20;89.40;;;;;;5105802;28;20092;-54
2022/12/22 05:08:16;;;;;;;11.57;5.75;;;27.10;89.40;;;;;;5105575;28;20333;-53
2022/12/22 05:10:42;;;;;;;12.00;6.00;;;27.10;89.50;;;;;;5104750;28;20039;-55
2022/12/22 05:13:09;;;;;;;16.92;5.90;;;27.00;89.40;;;;;;5105187;28;20027;-54
2022/12/22 05:15:36;;;;;;;11.52;5.93;;;27.10;89.50;;;;;;5105364;28;20019;-51
2022/12/22 05:18:03;;;;;;;10.45;5.68;;;27.00;89.50;;;;;;5105120;28;20074;-54
2022/12/22 05:20:30;;;;;;;13.23;5.30;;;27.00;89.50;;;;;;5105289;28;20027;-55
2022/12/22 05:22:57;;;;;;;10.25;5.57;;;27.00;89.50;;;;;;5105627;28;20312;-54
2022/12/22 05:25:23;;;;;;;9.88;5.30;;;27.00;89.70;;;;;;5104906;28;20161;-52
2022/12/22 05:27:50;;;;;;;10.77;5.43;;;26.90;89.50;;;;;;5105535;28;20027;-54
2022/12/22 05:30:19;;;;;;;8.50;5.30;;;26.90;89.60;;;;;;5105060;28;20040;-54
2022/12/22 05:32:46;;;;;;;6.82;5.00;;;27.00;89.50;;;;;;5105353;28;20024;-52
2022/12/22 05:35:13;;;;;;;9.40;5.03;;;27.00;89.50;;;;;;5105453;28;20138;-54
2022/12/22 05:37:39;;;;;;;9.50;5.25;;;26.90;89.50;;;;;;5112641;28;20024;-53
2022/12/22 05:40:07;;;;;;;9.52;4.93;;;26.90;89.40;;;;;;5104545;28;20357;-50
2022/12/22 05:42:36;;;;;;;8.25;4.60;;;26.90;89.50;;;;;;5104546;28;20043;-53
2022/12/22 05:45:15;;;;;;;8.23;5.28;;;26.90;89.50;;;;;;5103814;28;20088;-53
2022/12/22 05:47:45;;;;;;;9.95;5.00;;;26.90;89.50;;;;;;5104779;28;20034;-57
2022/12/22 05:50:15;;;;;;;10.80;5.35;;;26.90;89.40;;;;;;5104448;28;20044;-55
2022/12/22 05:52:42;;;;;;;6.78;4.70;;;26.90;89.40;;;;;;5104592;28;20028;-53
2022/12/22 05:55:10;;;;;;;9.40;4.70;;;26.80;89.40;;;;;;5086250;28;20028;-53
2022/12/22 05:57:37;;;;;;;9.10;4.95;;;26.90;89.40;;;;;;5104446;28;20024;-53
2022/12/22 06:00:08;;;;;;;8.73;5.30;;;26.80;89.40;;;;;;5104485;28;20027;-54
2022/12/22 06:02:35;;;;;;;8.50;4.90;;;26.90;89.50;;;;;;5104782;28;20023;-54
2022/12/22 06:05:02;;;;;;;7.78;4.85;;;26.90;89.40;;;;;;5104615;28;20320;-54
2022/12/22 06:07:29;;;;;;;10.10;5.22;;;26.80;89.40;;;;;;5104707;28;20312;-53
2022/12/22 06:09:55;;;;;;;10.13;4.90;;;26.80;89.40;;;;;;5104629;28;20016;-52
2022/12/22 06:12:22;;;;;;;10.60;5.05;;;26.90;89.60;;;;;;5104781;28;20036;-54
2022/12/22 06:14:48;;;;;;;9.00;6.03;;;26.90;89.50;;;;;;5104333;28;20034;-54
2022/12/22 06:17:15;;;;;;;8.45;5.20;;;26.90;89.40;;;;;;5104454;28;20024;-53
2022/12/22 06:19:41;;;;;;;11.32;5.28;;;26.90;89.30;;;;;;5104968;28;20029;-54
2022/12/22 06:22:08;;;;;;;10.25;5.50;;;26.90;89.40;;;;;;5103684;28;20130;-54
2022/12/22 06:24:35;;;;;;;13.60;6.22;;;26.90;89.50;;;;;;5104217;28;20039;-54
2022/12/22 06:27:01;;;;;;;11.20;6.00;;;26.90;89.30;;;;;;5103830;28;20082;-54
2022/12/22 06:29:28;;;;;;;11.80;5.95;;;26.90;89.30;;;;;;5107027;28;20035;-54
2022/12/22 06:31:54;;;;;;;10.70;5.85;;;26.90;89.30;;;;;;5105541;28;20062;-54
2022/12/22 06:34:21;;;;;;;7.57;5.30;;;26.80;89.20;;;;;;5103866;28;20012;-55
2022/12/22 06:36:48;;;;;;;9.65;4.93;;;26.80;89.10;;;;;;5103678;28;20035;-54
2022/12/22 06:39:15;;;;;;;8.63;4.80;;;26.80;89.10;;;;;;5103711;28;20019;-54
2022/12/22 06:44:27;;;;;;;8.63;4.75;;;26.80;89.10;;;;;;5103898;28;20082;-54
2022/12/22 06:46:53;;;;;;;9.05;4.95;;;26.70;88.90;;;;;;5104153;28;20077;-52
2022/12/22 06:49:20;;;;;;;8.07;5.13;;;26.70;88.90;;;;;;5103623;28;20051;-53
2022/12/22 06:51:47;;;;;;;8.10;4.75;;;26.70;88.90;;;;;;5103849;28;20051;-54
2022/12/22 06:54:14;;;;;;;9.75;4.75;;;26.70;88.70;;;;;;5103791;28;20037;-54
2022/12/22 06:56:40;;;;;;;9.20;4.30;;;26.70;88.70;;;;;;5103545;28;20356;-53
2022/12/22 06:59:07;;;;;;;7.53;4.78;;;26.70;88.40;;;;;;5103538;28;20050;-54
2022/12/22 07:01:34;;;;;;;9.07;4.82;;;26.60;88.40;;;;;;5103983;28;20089;-51
2022/12/22 07:04:00;;;;;;;6.53;4.10;;;26.70;88.10;;;;;;5103868;28;20024;-53
2022/12/22 07:06:27;;;;;;;7.90;4.78;;;26.70;88.60;;;;;;5103823;28;20039;-54
2022/12/22 07:08:53;;;;;;;7.47;4.55;;;26.60;88.00;;;;;;5103879;28;20255;-52
2022/12/22 07:11:20;;;;;;;6.15;4.57;;;26.60;87.80;;;;;;5103693;28;20130;-54
2022/12/22 07:13:47;;;;;;;7.20;4.68;;;26.60;87.90;;;;;;5103625;28;20270;-50
2022/12/22 07:16:14;;;;;;;9.00;4.95;;;26.60;87.90;;;;;;5103687;28;20170;-55
2022/12/22 07:18:42;;;;;;;7.90;4.60;;;26.60;87.90;;;;;;5103765;28;20043;-54
2022/12/22 07:21:11;;;;;;;8.20;4.70;;;26.60;88.00;;;;;;5103502;28;20078;-49
2022/12/22 07:23:38;;;;;;;7.32;4.95;;;26.60;88.10;;;;;;5103882;28;20043;-58
2022/12/22 07:26:06;;;;;;;8.57;4.80;;;26.60;88.30;;;;;;5103564;28;20063;-54
2022/12/22 07:28:38;;;;;;;8.02;5.10;;;26.60;88.30;;;;;;5103492;28;20316;-54
2022/12/22 07:31:06;;;;;;;8.95;4.93;;;26.60;88.20;;;;;;5103334;28;20082;-53
2022/12/22 07:33:32;;;;;;;7.07;5.00;;;26.50;88.20;;;;;;5104959;28;20024;-53
2022/12/22 07:36:12;;;;;;;6.55;4.20;;;26.50;88.20;;;;;;5107342;28;20067;-55
2022/12/22 07:38:41;;;;;;;7.57;4.38;;;26.50;88.10;;;;;;5107016;28;20028;-53
2022/12/22 07:43:55;;;;;;;9.10;4.78;;;26.50;88.10;;;;;;5106927;28;20085;-55
2022/12/22 07:46:23;;;;;;;8.27;4.63;;;26.50;88.00;;;;;;5107226;28;20331;-52
2022/12/22 07:51:37;;;;;;;6.18;4.68;;;26.50;87.90;;;;;;5106583;28;20050;-54
2022/12/22 07:54:08;;;;;;;8.85;4.95;;;26.50;87.60;;;;;;5107307;28;20060;-53
2022/12/22 07:56:35;;;;;;;7.60;4.53;;;26.40;87.30;;;;;;5107074;28;20032;-53
2022/12/22 07:59:02;;;;;;;9.10;4.60;;;26.40;87.30;;;;;;5107206;28;20075;-53
2022/12/22 08:01:29;;;;;;;6.45;4.55;;;26.40;87.20;;;;;;5106949;28;20111;-54
2022/12/22 08:03:57;;;;;;;9.63;4.63;;;26.40;87.20;;;;;;5106428;28;20027;-54
2022/12/22 08:06:24;;;;;;;7.43;4.93;;;26.40;87.70;;;;;;5106588;28;20059;-50
2022/12/22 08:08:51;;;;;;;7.75;4.65;;;26.40;87.20;;;;;;5106720;28;20269;-53
2022/12/22 08:11:18;;;;;;;10.05;5.25;;;26.40;87.20;;;;;;5106557;28;20035;-54
2022/12/22 08:13:45;;;;;;;5.45;4.00;;;26.40;87.30;;;;;;5106103;28;20328;-50
2022/12/22 08:16:13;;;;;;;7.63;4.47;;;26.40;87.30;;;;;;5106916;28;20036;-54
2022/12/22 08:18:40;;;;;;;6.20;4.05;;;26.40;87.30;;;;;;5106334;28;20048;-52
2022/12/22 08:21:08;;;;;;;7.68;4.40;;;26.40;87.20;;;;;;5106262;28;20028;-52
2022/12/22 08:23:35;;;;;;;6.35;4.43;;;26.40;87.00;;;;;;5106304;28;20023;-53
2022/12/22 08:26:19;;;;;;;6.82;4.15;;;26.40;86.90;;;;;;5106299;28;20320;-54
2022/12/22 08:29:15;;;;;;;8.10;4.10;;;26.40;86.90;;;;;;5106119;28;20040;-54
2022/12/22 08:31:42;;;;;;;8.07;4.28;;;26.40;86.80;;;;;;5106147;28;20028;-54
2022/12/22 08:34:12;;;;;;;6.10;4.20;;;26.40;86.70;;;;;;5106200;28;20055;-53
2022/12/22 08:36:45;;;;;;;6.88;4.20;;;26.40;86.50;;;;;;5106220;28;20028;-54
2022/12/22 08:39:13;;;;;;;6.78;4.50;;;26.40;86.50;;;;;;5105957;28;20024;-53
2022/12/22 08:41:49;;;;;;;6.03;3.92;;;26.40;86.40;;;;;;5106454;28;20062;-54
2022/12/22 08:44:19;;;;;;;8.50;4.40;;;26.50;86.50;;;;;;5105602;28;20023;-54
2022/12/22 08:46:46;;;;;;;6.93;4.18;;;26.40;86.50;;;;;;5105729;28;20094;-54
2022/12/22 08:49:14;;;;;;;8.50;4.50;;;26.40;86.60;;;;;;5105609;28;20075;-54
2022/12/22 08:51:40;;;;;;;7.43;3.85;;;26.40;86.50;;;;;;5106046;28;20032;-49
2022/12/22 08:54:07;;;;;;;9.73;4.70;;;26.40;86.30;;;;;;5105859;28;20353;-53
2022/12/22 08:56:34;;;;;;;7.28;4.10;;;26.40;86.50;;;;;;5106009;28;20069;-53
2022/12/22 08:59:03;;;;;;;6.13;4.25;;;26.40;86.40;;;;;;5105589;28;20028;-54
2022/12/22 09:01:32;;;;;;;7.07;4.15;;;26.40;86.30;;;;;;5105979;28;20070;-54
2022/12/22 09:03:59;;;;;;;4.90;3.70;;;26.30;86.10;;;;;;5105445;28;20055;-53
2022/12/22 09:06:26;;;;;;;7.18;3.90;;;26.30;86.60;;;;;;5105553;28;20093;-53
2022/12/22 09:08:55;;;;;;;10.88;4.60;;;26.30;86.10;;;;;;5105525;28;20313;-53
2022/12/22 09:11:22;;;;;;;9.68;4.60;;;26.30;86.10;;;;;;5103445;28;20055;-53
2022/12/22 09:13:53;;;;;;;6.97;4.40;;;26.30;86.00;;;;;;5105096;28;20061;-53
2022/12/22 09:16:21;;;;;;;7.40;4.15;;;26.30;85.70;;;;;;5102245;28;20032;-53
2022/12/22 09:18:48;;;;;;;7.47;4.30;;;26.30;85.90;;;;;;5103716;28;20024;-54
2022/12/22 09:21:16;;;;;;;6.35;4.07;;;26.30;85.80;;;;;;5086575;28;20087;-53
2022/12/22 09:23:42;;;;;;;7.95;4.20;;;26.30;85.70;;;;;;5097104;28;20031;-54
2022/12/22 09:26:11;;;;;;;5.53;4.00;;;26.40;85.70;;;;;;5105169;28;20032;-53
2022/12/22 09:28:38;;;;;;;8.68;4.00;;;26.30;85.80;;;;;;5104999;28;20220;-54
2022/12/22 09:31:05;;;;;;;6.80;4.18;;;26.30;85.60;;;;;;5097750;28;20028;-54
2022/12/22 09:33:32;;;;;;;9.07;4.28;;;26.30;85.60;;;;;;5084680;28;20075;-54
2022/12/22 09:35:59;;;;;;;9.25;4.10;;;26.30;85.60;;;;;;5084386;28;20035;-53
2022/12/22 09:38:27;;;;;;;6.75;3.92;;;26.40;85.50;;;;;;5084594;28;20079;-55
2022/12/22 09:40:56;;;;;;;6.85;4.25;;;26.30;85.40;;;;;;5090401;28;20032;-54
2022/12/22 09:43:28;;;;;;;6.70;4.20;;;26.40;85.40;;;;;;5103481;28;20047;-55
2022/12/22 09:45:57;;;;;;;;;;;26.30;85.30;;;;;;5087621;28;20374;-54
2022/12/22 09:48:30;;;;;;;8.27;4.05;;;26.30;85.20;;;;;;5084486;28;19908;-55
2022/12/22 09:50:58;;;;;;;8.18;4.00;;;26.40;85.40;;;;;;5084150;28;20237;-54
2022/12/22 09:53:24;;;;;;;10.48;4.22;;;26.30;85.40;;;;;;5095146;28;20074;-53
2022/12/22 09:55:51;;;;;;;8.38;4.25;;;26.30;85.40;;;;;;5090776;28;20026;-53
2022/12/22 09:58:24;;;;;;;11.15;4.53;;;26.30;85.40;;;;;;5087194;28;20028;-53
2022/12/22 10:01:09;;;;;;;7.55;4.03;;;26.30;85.90;;;;;;5088483;28;20294;-54
2022/12/22 10:03:50;;;;;;;7.22;4.20;;;26.30;85.40;;;;;;5084231;28;20058;-53
2022/12/22 10:06:42;;;;;;;10.85;4.15;;;26.30;85.50;;;;;;5084238;28;20204;-54
2022/12/22 10:09:20;;;;;;;;;;;26.40;85.50;;;;;;5088722;28;20032;-52
2022/12/22 10:11:54;;;;;;;9.73;4.50;;;26.30;85.40;;;;;;5097851;28;19912;-54
2022/12/22 10:14:24;;;;;;;6.35;4.18;;;26.30;85.40;;;;;;5083979;28;20052;-53
2022/12/22 10:17:14;;;;;;;9.75;4.50;;;26.30;85.50;;;;;;5084208;28;20024;-53
2022/12/22 10:19:42;;;;;;;11.65;5.13;;;26.30;85.70;;;;;;5084060;28;20095;-54
2022/12/22 10:22:30;;;;;;;8.73;5.18;;;26.20;85.80;;;;;;5084164;28;20025;-53
2022/12/22 10:25:00;;;;;;;8.95;5.43;;;26.20;86.10;;;;;;5088666;28;20408;-53
2022/12/22 10:27:30;;;;;;;8.52;5.00;;;26.10;86.30;;;;;;5085980;28;20032;-49
2022/12/22 10:30:17;;;;;;;7.63;5.03;;;26.00;86.40;;;;;;5104031;28;20035;-53
2022/12/22 10:33:04;;;;;;;9.88;5.32;;;26.00;86.50;;;;;;5104302;28;20028;-53
2022/12/22 10:36:03;;;;;;;8.27;5.20;;;26.00;86.40;;;;;;5089532;28;20028;-53
2022/12/22 10:38:32;;;;;;;11.18;6.05;;;26.00;86.60;;;;;;5061335;28;20102;-52
2022/12/22 10:41:01;;;;;;;12.48;5.60;;;26.10;86.80;;;;;;5097215;28;20131;-51
2022/12/22 10:43:35;;;;;;;10.05;4.85;;;26.10;86.80;;;;;;5083597;28;20021;-53
2022/12/22 10:46:02;;;;;;;8.10;4.70;;;26.10;86.60;;;;;;5084097;28;20028;-54
2022/12/22 10:48:39;;;;;;;8.63;5.22;;;26.10;86.40;;;;;;5085676;28;20044;-50
2022/12/22 10:51:08;;;;;;;10.88;4.97;;;26.20;86.40;;;;;;5095806;28;20024;-51
2022/12/22 10:53:52;;;;;;;10.02;4.75;;;26.20;86.40;;;;;;5103911;28;20012;-51
2022/12/22 10:56:28;;;;;;;8.73;4.85;;;26.20;86.30;;;;;;5104289;28;20035;-53
2022/12/22 10:59:19;;;;;;;11.55;5.38;;;26.20;86.20;;;;;;5094017;28;20042;-54
2022/12/22 11:01:46;;;;;;;12.68;5.20;;;26.20;86.60;;;;;;5101405;28;20024;-53
2022/12/22 11:04:19;;;;;;;11.02;5.40;;;26.20;86.00;;;;;;5119152;28;20023;-53
2022/12/22 11:06:45;;;;;;;17.35;5.22;;;26.20;85.80;;;;;;5103886;28;20046;-53
2022/12/22 11:09:12;;;;;;;12.45;5.45;;;26.20;86.10;;;;;;5106473;28;20077;-54
2022/12/22 11:11:53;;;;;;;14.15;6.20;;;26.10;86.00;;;;;;5107692;28;20032;-53
2022/12/22 11:14:40;;;;;;;20.77;7.13;;;26.10;86.10;;;;;;5107890;28;20035;-51
2022/12/22 11:17:32;;;;;;;20.20;9.25;;;26.10;86.10;;;;;;5107431;28;20044;-53
2022/12/22 11:20:02;;;;;;;21.08;11.73;;;26.10;86.30;;;;;;5107622;28;20028;-52
2022/12/22 11:22:49;;;;;;;31.10;14.98;;;26.10;86.20;;;;;;5107773;28;20036;-53
2022/12/22 11:25:46;;;;;;;30.35;14.25;;;26.00;86.20;;;;;;5106274;28;20044;-54
2022/12/22 11:28:36;;;;;;;29.67;13.25;;;26.00;86.20;;;;;;5089266;28;20268;-52
2022/12/22 11:31:22;;;;;;;23.60;10.85;;;26.10;86.10;;;;;;5107764;28;20032;-52
2022/12/22 11:34:13;;;;;;;32.03;10.68;;;26.10;86.00;;;;;;5107296;28;20020;-57
2022/12/22 11:36:53;;;;;;;24.33;10.23;;;26.10;85.90;;;;;;5107460;28;20024;-54
2022/12/22 11:39:42;;;;;;;24.75;10.05;;;26.10;85.80;;;;;;5107239;28;20047;-54
2022/12/22 11:42:16;;;;;;;22.50;9.10;;;26.10;85.60;;;;;;5107782;28;20047;-57
2022/12/22 11:44:48;;;;;;;30.13;9.77;;;26.10;85.60;;;;;;5107517;28;20023;-55
2022/12/22 11:47:15;;;;;;;;;;;26.20;85.50;;;;;;5108524;28;20107;-53
2022/12/22 11:50:02;;;;;;;28.08;8.38;;;26.20;85.30;;;;;;5106869;28;19912;-53
2022/12/22 11:53:01;;;;;;;23.20;7.70;;;26.20;85.30;;;;;;5107591;28;20032;-52
2022/12/22 11:55:30;;;;;;;27.70;8.32;;;26.20;85.20;;;;;;5107293;28;20028;-53
2022/12/22 11:58:16;;;;;;;27.80;8.20;;;26.20;85.00;;;;;;5107194;28;20024;-52
2022/12/22 12:01:06;;;;;;;24.80;7.65;;;26.30;84.90;;;;;;5107205;28;20035;-54
2022/12/22 12:03:49;;;;;;;28.25;7.68;;;26.30;84.70;;;;;;5107025;28;20062;-55
2022/12/22 12:06:22;;;;;;;19.98;6.75;;;26.30;84.40;;;;;;5107116;28;20063;-55
2022/12/22 12:09:04;;;;;;;25.27;6.53;;;26.40;84.10;;;;;;5107308;28;20098;-54
2022/12/22 12:11:49;;;;;;;17.95;5.63;;;26.40;83.80;;;;;;5107429;28;20058;-55
2022/12/22 12:14:42;;;;;;;20.30;5.93;;;26.50;83.70;;;;;;5106981;28;20062;-54
2022/12/22 12:17:22;;;;;;;25.25;6.30;;;26.50;83.70;;;;;;5107001;28;20020;-54
2022/12/22 12:20:11;;;;;;;25.42;6.18;;;26.50;83.80;;;;;;5106685;28;20020;-56
2022/12/22 12:23:22;;;;;;;17.63;6.00;;;26.60;83.80;;;;;;5107001;28;20233;-55
2022/12/22 12:26:12;;;;;;;14.00;4.93;;;26.60;83.80;;;;;;5060037;28;20040;-55
2022/12/22 12:28:56;;;;;;;14.35;4.97;;;26.70;84.10;;;;;;5106309;28;20023;-54
2022/12/22 12:31:30;;;;;;;11.52;4.70;;;26.80;84.20;;;;;;5106459;28;20047;-55
2022/12/22 12:34:01;;;;;;;11.82;4.88;;;26.80;83.70;;;;;;5106093;28;20020;-53
2022/12/22 12:36:45;;;;;;;11.27;4.50;;;26.90;83.80;;;;;;5106404;28;20244;-53
2022/12/22 12:39:24;;;;;;;12.85;5.10;;;26.90;83.70;;;;;;5106089;28;20027;-53
2022/12/22 12:42:12;;;;;;;10.95;4.35;;;26.90;83.70;;;;;;5105376;28;20095;-54
2022/12/22 12:44:39;;;;;;;10.40;4.25;;;27.00;83.80;;;;;;5106216;28;20028;-51
2022/12/22 12:47:27;;;;;;;11.73;4.20;;;27.00;83.70;;;;;;5087988;28;20078;-52
2022/12/22 12:50:03;;;;;;;12.07;4.50;;;27.10;83.60;;;;;;5105668;28;20235;-51
2022/12/22 12:52:39;;;;;;;9.23;4.03;;;27.10;83.50;;;;;;5106432;28;20043;-53
2022/12/22 12:55:30;;;;;;;12.18;4.13;;;27.20;83.60;;;;;;5105963;28;20431;-53
2022/12/22 12:57:58;;;;;;;11.02;4.35;;;27.20;83.50;;;;;;5087818;28;20040;-52
2022/12/22 13:00:34;;;;;;;19.02;4.35;;;27.20;83.40;;;;;;5105993;28;20027;-51
2022/12/22 13:03:06;;;;;;;12.15;4.40;;;27.30;83.50;;;;;;5105747;28;20042;-58
2022/12/22 13:05:54;;;;;;;7.45;4.03;;;27.20;83.40;;;;;;5105451;28;20083;-54
2022/12/22 13:08:28;;;;;;;11.25;4.40;;;27.30;83.50;;;;;;5105644;28;20099;-56
2022/12/22 13:10:55;;;;;;;11.40;4.38;;;27.30;83.60;;;;;;5105318;28;20078;-54
2022/12/22 13:13:24;;;;;;;9.23;4.40;;;27.30;83.70;;;;;;5105793;28;20343;-54
2022/12/22 13:16:09;;;;;;;9.40;4.10;;;27.40;83.70;;;;;;5104043;28;20020;-50
2022/12/22 13:18:42;;;;;;;11.98;4.40;;;27.40;83.60;;;;;;5105448;28;20032;-52
2022/12/22 13:21:36;;;;;;;10.30;4.10;;;27.40;83.60;;;;;;5105244;28;20032;-56
2022/12/22 13:24:15;;;;;;;11.95;4.45;;;27.40;83.60;;;;;;5105534;28;20375;-52
2022/12/22 13:26:43;;;;;;;8.10;4.25;;;27.50;83.70;;;;;;5105274;28;20099;-54
2022/12/22 13:29:25;;;;;;;11.32;4.47;;;27.50;83.90;;;;;;5105266;28;20028;-51
2022/12/22 13:32:03;;;;;;;7.53;4.20;;;27.50;83.80;;;;;;5107060;28;20458;-51
2022/12/22 13:34:45;;;;;;;8.02;4.30;;;27.50;83.90;;;;;;5098751;28;20028;-54
2022/12/22 13:37:21;;;;;;;7.75;4.20;;;27.60;84.00;;;;;;5105298;28;20020;-51
2022/12/22 13:40:07;;;;;;;12.82;4.82;;;27.60;84.00;;;;;;5105093;28;20035;-51
2022/12/22 13:42:45;;;;;;;9.65;4.40;;;27.60;84.00;;;;;;5105845;28;20091;-51
2022/12/22 13:45:22;;;;;;;8.20;4.38;;;27.70;84.10;;;;;;5105028;28;20035;-52
2022/12/22 13:47:49;;;;;;;8.90;4.82;;;27.70;84.20;;;;;;5105238;28;20073;-52
2022/12/22 13:50:30;;;;;;;11.38;4.88;;;27.70;84.10;;;;;;5104573;28;20044;-52
2022/12/22 13:52:57;;;;;;;7.88;4.60;;;27.80;84.20;;;;;;5105184;28;20023;-56
2022/12/22 13:55:29;;;;;;;10.77;5.03;;;27.80;84.20;;;;;;5104738;28;20032;-52
2022/12/22 13:58:08;;;;;;;9.20;4.78;;;27.80;84.20;;;;;;5105015;28;20032;-49
2022/12/22 14:00:35;;;;;;;11.93;4.97;;;27.80;84.20;;;;;;5104648;28;20038;-53
2022/12/22 14:03:03;;;;;;;9.10;5.05;;;27.80;84.20;;;;;;5104623;28;20032;-52
2022/12/22 14:05:31;;;;;;;7.65;4.88;;;27.80;84.40;;;;;;5104530;28;20016;-53
2022/12/22 14:07:59;;;;;;;8.00;4.90;;;27.90;84.40;;;;;;5105037;28;20114;-54
2022/12/22 14:10:37;;;;;;;7.10;4.78;;;27.90;84.80;;;;;;5103917;28;20020;-55
2022/12/22 14:13:10;;;;;;;7.53;5.13;;;27.90;84.20;;;;;;5104655;28;20216;-54
2022/12/22 14:15:37;;;;;;;12.55;5.28;;;27.90;84.20;;;;;;5104545;28;20076;-53
2022/12/22 14:18:05;;;;;;;11.18;4.90;;;27.90;84.00;;;;;;5104630;28;20185;-54
2022/12/22 14:20:38;;;;;;;9.52;5.25;;;28.00;83.70;;;;;;5104306;28;20054;-52
2022/12/22 14:23:15;;;;;;;19.70;5.38;;;28.00;83.70;;;;;;5104146;28;20077;-52
2022/12/22 14:25:44;;;;;;;10.25;5.30;;;28.00;83.30;;;;;;5104098;28;20023;-53
2022/12/22 14:28:24;;;;;;;11.20;5.45;;;28.10;83.40;;;;;;5099561;28;20208;-55
2022/12/22 14:30:57;;;;;;;15.93;5.57;;;28.10;83.30;;;;;;5098894;28;20036;-52
2022/12/22 14:33:27;;;;;;;8.85;5.45;;;28.10;83.10;;;;;;5097982;28;20016;-53
2022/12/22 14:36:22;;;;;;;10.90;5.30;;;28.10;82.90;;;;;;5102362;28;20028;-53
2022/12/22 14:38:51;;;;;;;10.88;5.60;;;28.20;82.60;;;;;;5108418;28;20043;-55
2022/12/22 14:41:43;;;;;;;10.82;5.53;;;28.20;82.60;;;;;;5124459;28;20043;-56
2022/12/22 14:44:23;;;;;;;10.98;6.05;;;28.20;82.20;;;;;;5105124;28;20103;-57
2022/12/22 14:47:13;;;;;;;11.13;5.63;;;28.20;82.20;;;;;;5097209;28;20020;-54
2022/12/22 14:49:44;;;;;;;10.15;5.20;;;28.20;82.10;;;;;;5104457;28;20081;-58
2022/12/22 14:52:34;;;;;;;11.68;5.50;;;28.30;82.10;;;;;;5103921;28;20097;-55
2022/12/22 14:55:09;;;;;;;8.82;4.82;;;28.30;82.10;;;;;;5107734;28;20296;-57
2022/12/22 14:57:38;;;;;;;10.70;5.93;;;28.30;82.00;;;;;;5106506;28;20040;-54
2022/12/22 15:00:30;;;;;;;9.02;5.05;;;28.30;82.10;;;;;;5107995;28;20357;-56
2022/12/22 15:03:21;;;;;;;12.82;5.68;;;28.30;82.00;;;;;;5108418;28;20185;-56
2022/12/22 15:05:48;;;;;;;10.80;5.47;;;28.40;82.10;;;;;;5099749;28;20032;-58
2022/12/22 15:08:40;;;;;;;9.70;5.43;;;28.40;82.20;;;;;;5099698;28;20087;-58
2022/12/22 15:11:16;;;;;;;8.48;5.15;;;28.40;82.20;;;;;;5087465;28;20197;-55
2022/12/22 15:13:44;;;;;;;13.13;5.68;;;28.40;82.20;;;;;;5067143;28;20075;-52
2022/12/22 15:16:21;;;;;;;15.10;5.53;;;28.40;82.20;;;;;;5108758;28;20020;-55
2022/12/22 15:18:49;;;;;;;11.40;5.40;;;28.50;82.20;;;;;;5099600;28;20035;-55
2022/12/22 15:21:18;;;;;;;8.60;5.05;;;28.50;82.10;;;;;;5094310;28;20236;-54
2022/12/22 15:23:45;;;;;;;10.55;5.63;;;28.50;82.10;;;;;;5107373;28;20091;-54
2022/12/22 15:26:12;;;;;;;10.30;5.68;;;28.50;82.00;;;;;;5107686;28;20077;-55
2022/12/22 15:28:38;;;;;;;21.85;6.57;;;28.50;81.90;;;;;;5107368;28;20027;-55
2022/12/22 15:31:16;;;;;;;11.32;5.20;;;28.50;81.80;;;;;;5107379;28;20036;-55
2022/12/22 15:33:43;;;;;;;11.82;6.15;;;28.60;81.80;;;;;;5107412;28;20185;-55
2022/12/22 15:36:12;;;;;;;11.73;5.85;;;28.60;81.70;;;;;;5107368;28;20038;-52
2022/12/22 15:38:40;;;;;;;10.45;5.80;;;28.60;81.70;;;;;;5104721;28;20016;-55
2022/12/22 15:41:07;;;;;;;14.63;6.03;;;28.60;81.70;;;;;;5106715;28;20032;-55
2022/12/22 15:43:36;;;;;;;16.50;6.28;;;28.60;81.70;;;;;;5100972;28;20042;-57
2022/12/22 15:46:05;;;;;;;10.07;5.93;;;28.60;81.70;;;;;;5100629;28;20204;-54
2022/12/22 15:48:35;;;;;;;13.23;6.25;;;28.60;81.80;;;;;;5106960;28;20059;-54
2022/12/22 15:51:04;;;;;;;10.85;6.10;;;28.60;81.80;;;;;;5107097;28;20030;-54
2022/12/22 15:53:32;;;;;;;17.50;7.00;;;28.60;81.90;;;;;;5106780;28;20289;-54
2022/12/22 15:55:59;;;;;;;14.00;6.65;;;28.70;82.10;;;;;;5106814;28;20054;-56
2022/12/22 15:58:35;;;;;;;13.82;6.63;;;28.70;82.10;;;;;;5107042;28;20014;-54
2022/12/22 16:01:02;;;;;;;13.82;6.85;;;28.70;82.20;;;;;;5106948;28;20196;-55
2022/12/22 16:03:29;;;;;;;15.38;6.75;;;28.60;82.20;;;;;;5107196;28;20020;-56
2022/12/22 16:05:56;;;;;;;15.20;7.55;;;28.60;82.20;;;;;;5106864;28;20036;-55
2022/12/22 16:08:37;;;;;;;14.95;6.78;;;28.70;82.30;;;;;;5106904;28;20032;-55
2022/12/22 16:11:06;;;;;;;14.40;7.40;;;28.70;82.30;;;;;;5106691;28;20359;-55
2022/12/22 16:13:34;;;;;;;13.45;7.03;;;28.70;82.40;;;;;;5106689;28;20032;-54
2022/12/22 16:16:01;;;;;;;12.98;7.75;;;28.70;82.40;;;;;;5086622;28;20313;-56
2022/12/22 16:18:28;;;;;;;13.00;7.40;;;28.70;82.40;;;;;;5099815;28;20312;-53
2022/12/22 16:20:57;;;;;;;11.85;6.85;;;28.70;82.40;;;;;;5091824;28;20228;-56
2022/12/22 16:23:25;;;;;;;13.60;6.80;;;28.70;82.40;;;;;;5105167;28;20038;-54
2022/12/22 16:25:57;;;;;;;14.40;6.65;;;28.70;82.40;;;;;;5105465;28;20324;-52
2022/12/22 16:28:25;;;;;;;15.38;6.55;;;28.80;82.60;;;;;;5105593;28;20345;-56
2022/12/22 16:30:52;;;;;;;13.98;6.05;;;28.70;82.60;;;;;;5102194;28;20031;-58
2022/12/22 16:33:19;;;;;;;13.40;6.68;;;28.80;82.70;;;;;;5102911;28;20043;-52
2022/12/22 16:35:45;;;;;;;15.77;6.30;;;28.80;82.60;;;;;;5105368;28;20024;-56
2022/12/22 16:38:12;;;;;;;12.80;5.63;;;28.80;82.90;;;;;;5105619;28;20020;-55
2022/12/22 16:40:51;;;;;;;13.25;5.60;;;28.90;82.70;;;;;;5105466;28;20094;-55
2022/12/22 16:43:24;;;;;;;11.77;6.13;;;28.90;83.00;;;;;;5104597;28;20027;-56
2022/12/22 16:45:51;;;;;;;12.05;5.82;;;28.90;83.00;;;;;;5103730;28;20351;-55
2022/12/22 16:48:45;;;;;;;13.63;5.65;;;28.90;82.80;;;;;;5102529;28;20124;-55